Terminal Aerodrome Forecast
Issued by NWS Wilmington, OH

Current Version | Previous Version | Graphics & Text | Print | Product List | Glossary On
Versions: 1 2 3 4 5 6 7 8 9 10 11 12 13 14 15 16
000
FTUS41 KILN 221000 AAA
TAFILN
TAF AMD
KILN 221045Z 2211/2306 26009KT P6SM SCT015 OVC060
     FM221300 29014KT P6SM BKN015 OVC050
     FM221600 30015KT P6SM SCT022
     FM221800 31016G24KT P6SM FEW040
     FM230000 33010KT P6SM SKC=

USA.gov is the U.S. government's official web portal to all federal, state and local government web resources and services.